sensor_id;sensor_type;location;lat;lon;timestamp;P1;durP1;ratioP1;P2;durP2;ratioP2
27907;SDS011;15249;48.092;11.484;2024-02-14T00:00:38;3;;;2.4;;
27907;SDS011;15249;48.092;11.484;2024-02-14T00:01:39;3;;;2.4;;
27907;SDS011;15249;48.092;11.484;2024-02-14T00:02:39;3;;;2.4;;
27907;SDS011;15249;48.092;11.484;2024-02-14T00:03:40;3;;;2.4;;
27907;SDS011;15249;48.092;11.484;2024-02-14T00:04:40;3;;;2.4;;
27907;SDS011;15249;48.092;11.484;2024-02-14T00:05:41;3;;;2.4;;
27907;SDS011;15249;48.092;11.484;2024-02-14T00:06:43;3;;;2.4;;
27907;SDS011;15249;48.092;11.484;2024-02-14T00:07:44;3;;;2.4;;
27907;SDS011;15249;48.092;11.484;2024-02-14T00:08:44;3.6;;;2.3;;
27907;SDS011;15249;48.092;11.484;2024-02-14T00:09:45;3.6;;;2.3;;
27907;SDS011;15249;48.092;11.484;2024-02-14T00:10:46;3.6;;;2.3;;
27907;SDS011;15249;48.092;11.484;2024-02-14T00:11:47;3.6;;;2.3;;
27907;SDS011;15249;48.092;11.484;2024-02-14T00:12:48;3.6;;;2.3;;
27907;SDS011;15249;48.092;11.484;2024-02-14T00:13:50;3.6;;;2.3;;
27907;SDS011;15249;48.092;11.484;2024-02-14T00:14:50;3.6;;;2.3;;
27907;SDS011;15249;48.092;11.484;2024-02-14T00:15:51;3.6;;;2.3;;
27907;SDS011;15249;48.092;11.484;2024-02-14T00:16:51;3.6;;;2.3;;
27907;SDS011;15249;48.092;11.484;2024-02-14T00:17:52;3.6;;;2.3;;
27907;SDS011;15249;48.092;11.484;2024-02-14T00:18:52;3.5;;;2.5;;
27907;SDS011;15249;48.092;11.484;2024-02-14T00:19:53;3.5;;;2.5;;
27907;SDS011;15249;48.092;11.484;2024-02-14T00:20:53;3.5;;;2.5;;
27907;SDS011;15249;48.092;11.484;2024-02-14T00:21:54;3.5;;;2.5;;
27907;SDS011;15249;48.092;11.484;2024-02-14T00:22:54;3.5;;;2.5;;
27907;SDS011;15249;48.092;11.484;2024-02-14T00:23:58;3.5;;;2.5;;
27907;SDS011;15249;48.092;11.484;2024-02-14T00:24:58;3.5;;;2.5;;
27907;SDS011;15249;48.092;11.484;2024-02-14T00:25:59;3.5;;;2.5;;
27907;SDS011;15249;48.092;11.484;2024-02-14T00:27:00;3.5;;;2.5;;
27907;SDS011;15249;48.092;11.484;2024-02-14T00:28:00;3.5;;;2.5;;
27907;SDS011;15249;48.092;11.484;2024-02-14T00:29:01;3.5;;;2.5;;
27907;SDS011;15249;48.092;11.484;2024-02-14T00:30:03;3.45;;;2.3;;
27907;SDS011;15249;48.092;11.484;2024-02-14T00:31:05;3.45;;;2.3;;
27907;SDS011;15249;48.092;11.484;2024-02-14T00:32:06;3.45;;;2.3;;
27907;SDS011;15249;48.092;11.484;2024-02-14T00:33:06;3.45;;;2.3;;
27907;SDS011;15249;48.092;11.484;2024-02-14T00:34:07;3.45;;;2.3;;
27907;SDS011;15249;48.092;11.484;2024-02-14T00:35:07;3.45;;;2.3;;
27907;SDS011;15249;48.092;11.484;2024-02-14T00:36:08;3.45;;;2.3;;
27907;SDS011;15249;48.092;11.484;2024-02-14T00:37:08;3.45;;;2.3;;
27907;SDS011;15249;48.092;11.484;2024-02-14T00:38:09;3.45;;;2.3;;
27907;SDS011;15249;48.092;11.484;2024-02-14T00:39:10;3.45;;;2.3;;
27907;SDS011;15249;48.092;11.484;2024-02-14T00:40:11;3.45;;;2.3;;
27907;SDS011;15249;48.092;11.484;2024-02-14T00:41:12;4.7;;;2.2;;
27907;SDS011;15249;48.092;11.484;2024-02-14T00:42:12;4.7;;;2.2;;
27907;SDS011;15249;48.092;11.484;2024-02-14T00:43:13;4.7;;;2.2;;
27907;SDS011;15249;48.092;11.484;2024-02-14T00:44:16;4.7;;;2.2;;
27907;SDS011;15249;48.092;11.484;2024-02-14T00:45:17;4.7;;;2.2;;
27907;SDS011;15249;48.092;11.484;2024-02-14T00:46:17;4.7;;;2.2;;
27907;SDS011;15249;48.092;11.484;2024-02-14T00:47:18;4.7;;;2.2;;
27907;SDS011;15249;48.092;11.484;2024-02-14T00:48:18;4.7;;;2.2;;
27907;SDS011;15249;48.092;11.484;2024-02-14T00:49:19;4.7;;;2.2;;
27907;SDS011;15249;48.092;11.484;2024-02-14T00:50:20;4.7;;;2.2;;
27907;SDS011;15249;48.092;11.484;2024-02-14T00:51:21;3.2;;;2.15;;
27907;SDS011;15249;48.092;11.484;2024-02-14T00:52:21;3.2;;;2.15;;
27907;SDS011;15249;48.092;11.484;2024-02-14T00:53:22;3.2;;;2.15;;
27907;SDS011;15249;48.092;11.484;2024-02-14T00:54:22;3.2;;;2.15;;
27907;SDS011;15249;48.092;11.484;2024-02-14T00:55:23;3.2;;;2.15;;
27907;SDS011;15249;48.092;11.484;2024-02-14T00:56:23;3.2;;;2.15;;
27907;SDS011;15249;48.092;11.484;2024-02-14T00:57:26;3.2;;;2.15;;
27907;SDS011;15249;48.092;11.484;2024-02-14T00:58:26;3.2;;;2.15;;
27907;SDS011;15249;48.092;11.484;2024-02-14T00:59:27;3.2;;;2.15;;
27907;SDS011;15249;48.092;11.484;2024-02-14T01:00:28;3.2;;;2.15;;
27907;SDS011;15249;48.092;11.484;2024-02-14T01:01:28;3.2;;;2.15;;
27907;SDS011;15249;48.092;11.484;2024-02-14T01:02:30;3.45;;;2.3;;
27907;SDS011;15249;48.092;11.484;2024-02-14T01:03:30;3.45;;;2.3;;
27907;SDS011;15249;48.092;11.484;2024-02-14T01:04:31;3.45;;;2.3;;
27907;SDS011;15249;48.092;11.484;2024-02-14T01:05:31;3.45;;;2.3;;
27907;SDS011;15249;48.092;11.484;2024-02-14T01:06:31;3.45;;;2.3;;
27907;SDS011;15249;48.092;11.484;2024-02-14T01:07:32;3.45;;;2.3;;
27907;SDS011;15249;48.092;11.484;2024-02-14T01:08:33;3.45;;;2.3;;
27907;SDS011;15249;48.092;11.484;2024-02-14T01:09:34;3.45;;;2.3;;
27907;SDS011;15249;48.092;11.484;2024-02-14T01:10:34;3.45;;;2.3;;
27907;SDS011;15249;48.092;11.484;2024-02-14T01:11:35;3.45;;;2.3;;
27907;SDS011;15249;48.092;11.484;2024-02-14T01:12:35;2.5;;;2.3;;
27907;SDS011;15249;48.092;11.484;2024-02-14T01:13:36;2.5;;;2.3;;
27907;SDS011;15249;48.092;11.484;2024-02-14T01:14:37;2.5;;;2.3;;
27907;SDS011;15249;48.092;11.484;2024-02-14T01:15:37;2.5;;;2.3;;
27907;SDS011;15249;48.092;11.484;2024-02-14T01:16:41;2.5;;;2.3;;
27907;SDS011;15249;48.092;11.484;2024-02-14T01:17:43;2.5;;;2.3;;
27907;SDS011;15249;48.092;11.484;2024-02-14T01:18:43;2.5;;;2.3;;
27907;SDS011;15249;48.092;11.484;2024-02-14T01:19:44;2.5;;;2.3;;
27907;SDS011;15249;48.092;11.484;2024-02-14T01:20:44;2.5;;;2.3;;
27907;SDS011;15249;48.092;11.484;2024-02-14T01:21:48;2.5;;;2.3;;
27907;SDS011;15249;48.092;11.484;2024-02-14T01:22:48;2.5;;;2.3;;
27907;SDS011;15249;48.092;11.484;2024-02-14T01:23:49;2.5;;;2.3;;
27907;SDS011;15249;48.092;11.484;2024-02-14T01:24:49;2.5;;;2.3;;
27907;SDS011;15249;48.092;11.484;2024-02-14T01:25:50;2.5;;;2.3;;
27907;SDS011;15249;48.092;11.484;2024-02-14T01:26:50;2.5;;;2.3;;
27907;SDS011;15249;48.092;11.484;2024-02-14T01:27:52;2.5;;;2.3;;
27907;SDS011;15249;48.092;11.484;2024-02-14T01:28:53;2.5;;;2.3;;
27907;SDS011;15249;48.092;11.484;2024-02-14T01:29:54;2.5;;;2.3;;
27907;SDS011;15249;48.092;11.484;2024-02-14T01:30:56;2.5;;;2.3;;
27907;SDS011;15249;48.092;11.484;2024-02-14T01:31:57;2.5;;;2.3;;
27907;SDS011;15249;48.092;11.484;2024-02-14T01:32:57;2.5;;;2.3;;
27907;SDS011;15249;48.092;11.484;2024-02-14T01:34:01;2.3;;;2.1;;
27907;SDS011;15249;48.092;11.484;2024-02-14T01:35:02;2.3;;;2.1;;
27907;SDS011;15249;48.092;11.484;2024-02-14T01:36:03;2.3;;;2.1;;
27907;SDS011;15249;48.092;11.484;2024-02-14T01:37:04;2.3;;;2.1;;
27907;SDS011;15249;48.092;11.484;2024-02-14T01:38:06;2.3;;;2.1;;
27907;SDS011;15249;48.092;11.484;2024-02-14T01:39:10;2.3;;;2.1;;
27907;SDS011;15249;48.092;11.484;2024-02-14T01:40:11;2.3;;;2.1;;
27907;SDS011;15249;48.092;11.484;2024-02-14T01:41:13;2.3;;;2.1;;
27907;SDS011;15249;48.092;11.484;2024-02-14T01:42:14;2.3;;;2.1;;
27907;SDS011;15249;48.092;11.484;2024-02-14T01:43:15;2.3;;;2.1;;
27907;SDS011;15249;48.092;11.484;2024-02-14T01:44:15;2.3;;;2.1;;
27907;SDS011;15249;48.092;11.484;2024-02-14T01:45:16;2.4;;;1.85;;
27907;SDS011;15249;48.092;11.484;2024-02-14T01:46:17;2.4;;;1.85;;
27907;SDS011;15249;48.092;11.484;2024-02-14T01:47:19;2.4;;;1.85;;
27907;SDS011;15249;48.092;11.484;2024-02-14T01:48:21;2.4;;;1.85;;
27907;SDS011;15249;48.092;11.484;2024-02-14T01:49:22;2.4;;;1.85;;
27907;SDS011;15249;48.092;11.484;2024-02-14T01:50:28;2.4;;;1.85;;
27907;SDS011;15249;48.092;11.484;2024-02-14T01:51:29;2.4;;;1.85;;
27907;SDS011;15249;48.092;11.484;2024-02-14T01:52:31;2.4;;;1.85;;
27907;SDS011;15249;48.092;11.484;2024-02-14T01:53:31;2.4;;;1.85;;
27907;SDS011;15249;48.092;11.484;2024-02-14T01:54:32;2.4;;;1.85;;
27907;SDS011;15249;48.092;11.484;2024-02-14T01:55:34;3.7;;;1.9;;
27907;SDS011;15249;48.092;11.484;2024-02-14T01:56:35;3.7;;;1.9;;
27907;SDS011;15249;48.092;11.484;2024-02-14T01:57:37;3.7;;;1.9;;
27907;SDS011;15249;48.092;11.484;2024-02-14T01:58:39;3.7;;;1.9;;
27907;SDS011;15249;48.092;11.484;2024-02-14T01:59:39;3.7;;;1.9;;
27907;SDS011;15249;48.092;11.484;2024-02-14T02:00:41;3.7;;;1.9;;
27907;SDS011;15249;48.092;11.484;2024-02-14T02:01:42;3.7;;;1.9;;
27907;SDS011;15249;48.092;11.484;2024-02-14T02:02:43;3.7;;;1.9;;
27907;SDS011;15249;48.092;11.484;2024-02-14T02:03:44;3.7;;;1.9;;
27907;SDS011;15249;48.092;11.484;2024-02-14T02:04:44;3.7;;;1.9;;
27907;SDS011;15249;48.092;11.484;2024-02-14T02:05:45;2.1;;;1.7;;
27907;SDS011;15249;48.092;11.484;2024-02-14T02:06:45;2.1;;;1.7;;
27907;SDS011;15249;48.092;11.484;2024-02-14T02:07:48;2.1;;;1.7;;
27907;SDS011;15249;48.092;11.484;2024-02-14T02:08:50;2.1;;;1.7;;
27907;SDS011;15249;48.092;11.484;2024-02-14T02:09:50;2.1;;;1.7;;
27907;SDS011;15249;48.092;11.484;2024-02-14T02:10:51;2.1;;;1.7;;
27907;SDS011;15249;48.092;11.484;2024-02-14T02:11:53;2.1;;;1.7;;
27907;SDS011;15249;48.092;11.484;2024-02-14T02:12:57;2.1;;;1.7;;
27907;SDS011;15249;48.092;11.484;2024-02-14T02:13:58;2.1;;;1.7;;
27907;SDS011;15249;48.092;11.484;2024-02-14T02:14:58;2.1;;;1.7;;
27907;SDS011;15249;48.092;11.484;2024-02-14T02:16:01;2.1;;;1.7;;
27907;SDS011;15249;48.092;11.484;2024-02-14T02:17:02;2.8;;;2.2;;
27907;SDS011;15249;48.092;11.484;2024-02-14T02:18:06;2.8;;;2.2;;
27907;SDS011;15249;48.092;11.484;2024-02-14T02:19:09;2.8;;;2.2;;
27907;SDS011;15249;48.092;11.484;2024-02-14T02:20:10;2.8;;;2.2;;
27907;SDS011;15249;48.092;11.484;2024-02-14T02:21:12;2.8;;;2.2;;
27907;SDS011;15249;48.092;11.484;2024-02-14T02:22:13;2.8;;;2.2;;
27907;SDS011;15249;48.092;11.484;2024-02-14T02:23:14;2.8;;;2.2;;
27907;SDS011;15249;48.092;11.484;2024-02-14T02:24:15;2.8;;;2.2;;
27907;SDS011;15249;48.092;11.484;2024-02-14T02:25:15;2.8;;;2.2;;
27907;SDS011;15249;48.092;11.484;2024-02-14T02:26:16;2.8;;;2.2;;
27907;SDS011;15249;48.092;11.484;2024-02-14T02:27:16;2.85;;;1.8;;
27907;SDS011;15249;48.092;11.484;2024-02-14T02:28:17;2.85;;;1.8;;
27907;SDS011;15249;48.092;11.484;2024-02-14T02:29:19;2.85;;;1.8;;
27907;SDS011;15249;48.092;11.484;2024-02-14T02:30:20;2.85;;;1.8;;
27907;SDS011;15249;48.092;11.484;2024-02-14T02:31:20;2.85;;;1.8;;
27907;SDS011;15249;48.092;11.484;2024-02-14T02:32:21;2.85;;;1.8;;
27907;SDS011;15249;48.092;11.484;2024-02-14T02:33:21;2.85;;;1.8;;
27907;SDS011;15249;48.092;11.484;2024-02-14T02:34:22;2.85;;;1.8;;
27907;SDS011;15249;48.092;11.484;2024-02-14T02:35:24;2.85;;;1.8;;
27907;SDS011;15249;48.092;11.484;2024-02-14T02:36:25;2.85;;;1.8;;
27907;SDS011;15249;48.092;11.484;2024-02-14T02:37:26;2.85;;;1.8;;
27907;SDS011;15249;48.092;11.484;2024-02-14T02:38:26;2.1;;;1.9;;
27907;SDS011;15249;48.092;11.484;2024-02-14T02:39:26;2.1;;;1.9;;
27907;SDS011;15249;48.092;11.484;2024-02-14T02:40:27;2.1;;;1.9;;
27907;SDS011;15249;48.092;11.484;2024-02-14T02:41:27;2.1;;;1.9;;
27907;SDS011;15249;48.092;11.484;2024-02-14T02:42:29;2.1;;;1.9;;
27907;SDS011;15249;48.092;11.484;2024-02-14T02:43:30;2.1;;;1.9;;
27907;SDS011;15249;48.092;11.484;2024-02-14T02:44:30;2.1;;;1.9;;
27907;SDS011;15249;48.092;11.484;2024-02-14T02:45:31;2.1;;;1.9;;
27907;SDS011;15249;48.092;11.484;2024-02-14T02:46:32;2.1;;;1.9;;
27907;SDS011;15249;48.092;11.484;2024-02-14T02:47:32;2.1;;;1.9;;
27907;SDS011;15249;48.092;11.484;2024-02-14T02:48:33;2.8;;;1.9;;
27907;SDS011;15249;48.092;11.484;2024-02-14T02:49:33;2.8;;;1.9;;
27907;SDS011;15249;48.092;11.484;2024-02-14T02:50:34;2.8;;;1.9;;
27907;SDS011;15249;48.092;11.484;2024-02-14T02:51:34;2.8;;;1.9;;
27907;SDS011;15249;48.092;11.484;2024-02-14T02:52:35;2.8;;;1.9;;
27907;SDS011;15249;48.092;11.484;2024-02-14T02:53:36;2.8;;;1.9;;
27907;SDS011;15249;48.092;11.484;2024-02-14T02:54:41;2.8;;;1.9;;
27907;SDS011;15249;48.092;11.484;2024-02-14T02:55:41;2.8;;;1.9;;
27907;SDS011;15249;48.092;11.484;2024-02-14T02:56:42;2.8;;;1.9;;
27907;SDS011;15249;48.092;11.484;2024-02-14T02:57:43;2.8;;;1.9;;
27907;SDS011;15249;48.092;11.484;2024-02-14T02:58:44;2.8;;;1.9;;
27907;SDS011;15249;48.092;11.484;2024-02-14T02:59:46;2.1;;;1.9;;
27907;SDS011;15249;48.092;11.484;2024-02-14T03:00:49;2.1;;;1.9;;
27907;SDS011;15249;48.092;11.484;2024-02-14T03:01:49;2.1;;;1.9;;
27907;SDS011;15249;48.092;11.484;2024-02-14T03:02:50;2.1;;;1.9;;
27907;SDS011;15249;48.092;11.484;2024-02-14T03:03:50;2.1;;;1.9;;
27907;SDS011;15249;48.092;11.484;2024-02-14T03:04:51;2.1;;;1.9;;
27907;SDS011;15249;48.092;11.484;2024-02-14T03:05:51;2.1;;;1.9;;
27907;SDS011;15249;48.092;11.484;2024-02-14T03:06:52;2.1;;;1.9;;
27907;SDS011;15249;48.092;11.484;2024-02-14T03:07:53;2.1;;;1.9;;
27907;SDS011;15249;48.092;11.484;2024-02-14T03:08:56;2.1;;;1.9;;
27907;SDS011;15249;48.092;11.484;2024-02-14T03:09:56;2.1;;;1.75;;
27907;SDS011;15249;48.092;11.484;2024-02-14T03:11:01;2.1;;;1.75;;
27907;SDS011;15249;48.092;11.484;2024-02-14T03:12:04;2.1;;;1.75;;
27907;SDS011;15249;48.092;11.484;2024-02-14T03:13:05;2.1;;;1.75;;
27907;SDS011;15249;48.092;11.484;2024-02-14T03:14:05;2.1;;;1.75;;
27907;SDS011;15249;48.092;11.484;2024-02-14T03:15:10;2.1;;;1.75;;
27907;SDS011;15249;48.092;11.484;2024-02-14T03:16:11;2.1;;;1.75;;
27907;SDS011;15249;48.092;11.484;2024-02-14T03:17:11;2.1;;;1.75;;
27907;SDS011;15249;48.092;11.484;2024-02-14T03:18:12;2.1;;;1.75;;
27907;SDS011;15249;48.092;11.484;2024-02-14T03:19:12;2.1;;;1.75;;
27907;SDS011;15249;48.092;11.484;2024-02-14T03:20:13;2.1;;;1.75;;
27907;SDS011;15249;48.092;11.484;2024-02-14T03:21:14;1.8;;;1.7;;
27907;SDS011;15249;48.092;11.484;2024-02-14T03:22:14;1.8;;;1.7;;
27907;SDS011;15249;48.092;11.484;2024-02-14T03:23:15;1.8;;;1.7;;
27907;SDS011;15249;48.092;11.484;2024-02-14T03:24:16;1.8;;;1.7;;
27907;SDS011;15249;48.092;11.484;2024-02-14T03:25:17;1.8;;;1.7;;
27907;SDS011;15249;48.092;11.484;2024-02-14T03:26:18;1.8;;;1.7;;
27907;SDS011;15249;48.092;11.484;2024-02-14T03:27:19;1.8;;;1.7;;
27907;SDS011;15249;48.092;11.484;2024-02-14T03:28:20;1.8;;;1.7;;
27907;SDS011;15249;48.092;11.484;2024-02-14T03:29:20;1.8;;;1.7;;
27907;SDS011;15249;48.092;11.484;2024-02-14T03:30:22;1.8;;;1.7;;
27907;SDS011;15249;48.092;11.484;2024-02-14T03:31:23;1.7;;;1.6;;
27907;SDS011;15249;48.092;11.484;2024-02-14T03:32:23;1.7;;;1.6;;
27907;SDS011;15249;48.092;11.484;2024-02-14T03:33:24;1.7;;;1.6;;
27907;SDS011;15249;48.092;11.484;2024-02-14T03:34:25;1.7;;;1.6;;
27907;SDS011;15249;48.092;11.484;2024-02-14T03:35:26;1.7;;;1.6;;
27907;SDS011;15249;48.092;11.484;2024-02-14T03:36:30;1.7;;;1.6;;
27907;SDS011;15249;48.092;11.484;2024-02-14T03:37:31;1.7;;;1.6;;
27907;SDS011;15249;48.092;11.484;2024-02-14T03:38:32;1.7;;;1.6;;
27907;SDS011;15249;48.092;11.484;2024-02-14T03:39:32;1.7;;;1.6;;
27907;SDS011;15249;48.092;11.484;2024-02-14T03:40:33;1.7;;;1.6;;
27907;SDS011;15249;48.092;11.484;2024-02-14T03:41:33;1.7;;;1.6;;
27907;SDS011;15249;48.092;11.484;2024-02-14T03:42:34;2.4;;;1.8;;
27907;SDS011;15249;48.092;11.484;2024-02-14T03:43:34;2.4;;;1.8;;
27907;SDS011;15249;48.092;11.484;2024-02-14T03:44:35;2.4;;;1.8;;
27907;SDS011;15249;48.092;11.484;2024-02-14T03:45:35;2.4;;;1.8;;
27907;SDS011;15249;48.092;11.484;2024-02-14T03:46:36;2.4;;;1.8;;
27907;SDS011;15249;48.092;11.484;2024-02-14T03:47:39;2.4;;;1.8;;
27907;SDS011;15249;48.092;11.484;2024-02-14T03:48:43;2.4;;;1.8;;
27907;SDS011;15249;48.092;11.484;2024-02-14T03:49:43;2.4;;;1.8;;
27907;SDS011;15249;48.092;11.484;2024-02-14T03:50:44;2.4;;;1.8;;
27907;SDS011;15249;48.092;11.484;2024-02-14T03:51:44;2.4;;;1.8;;
27907;SDS011;15249;48.092;11.484;2024-02-14T03:52:45;1.9;;;1.7;;
27907;SDS011;15249;48.092;11.484;2024-02-14T03:53:45;1.9;;;1.7;;
27907;SDS011;15249;48.092;11.484;2024-02-14T03:54:46;1.9;;;1.7;;
27907;SDS011;15249;48.092;11.484;2024-02-14T03:55:46;1.9;;;1.7;;
27907;SDS011;15249;48.092;11.484;2024-02-14T03:56:47;1.9;;;1.7;;
27907;SDS011;15249;48.092;11.484;2024-02-14T03:57:48;1.9;;;1.7;;
27907;SDS011;15249;48.092;11.484;2024-02-14T03:58:49;1.9;;;1.7;;
27907;SDS011;15249;48.092;11.484;2024-02-14T03:59:49;1.9;;;1.7;;
27907;SDS011;15249;48.092;11.484;2024-02-14T04:00:50;1.9;;;1.7;;
27907;SDS011;15249;48.092;11.484;2024-02-14T04:01:53;1.9;;;1.7;;
27907;SDS011;15249;48.092;11.484;2024-02-14T04:02:58;1.9;;;1.7;;
27907;SDS011;15249;48.092;11.484;2024-02-14T04:03:59;3.65;;;1.85;;
27907;SDS011;15249;48.092;11.484;2024-02-14T04:05:00;3.65;;;1.85;;
27907;SDS011;15249;48.092;11.484;2024-02-14T04:06:00;3.65;;;1.85;;
27907;SDS011;15249;48.092;11.484;2024-02-14T04:07:02;3.65;;;1.85;;
27907;SDS011;15249;48.092;11.484;2024-02-14T04:08:03;3.65;;;1.85;;
27907;SDS011;15249;48.092;11.484;2024-02-14T04:09:04;3.65;;;1.85;;
27907;SDS011;15249;48.092;11.484;2024-02-14T04:10:05;3.65;;;1.85;;
27907;SDS011;15249;48.092;11.484;2024-02-14T04:11:06;3.65;;;1.85;;
27907;SDS011;15249;48.092;11.484;2024-02-14T04:12:07;3.65;;;1.85;;
27907;SDS011;15249;48.092;11.484;2024-02-14T04:13:09;3.65;;;1.85;;
27907;SDS011;15249;48.092;11.484;2024-02-14T04:14:10;2.05;;;1.9;;
27907;SDS011;15249;48.092;11.484;2024-02-14T04:15:11;2.05;;;1.9;;
27907;SDS011;15249;48.092;11.484;2024-02-14T04:16:12;2.05;;;1.9;;
27907;SDS011;15249;48.092;11.484;2024-02-14T04:17:13;2.05;;;1.9;;
27907;SDS011;15249;48.092;11.484;2024-02-14T04:18:14;2.05;;;1.9;;
27907;SDS011;15249;48.092;11.484;2024-02-14T04:19:17;2.05;;;1.9;;
27907;SDS011;15249;48.092;11.484;2024-02-14T04:20:17;2.05;;;1.9;;
27907;SDS011;15249;48.092;11.484;2024-02-14T04:21:19;2.05;;;1.9;;
27907;SDS011;15249;48.092;11.484;2024-02-14T04:22:21;2.05;;;1.9;;
27907;SDS011;15249;48.092;11.484;2024-02-14T04:23:22;2.05;;;1.9;;
27907;SDS011;15249;48.092;11.484;2024-02-14T04:24:22;2.05;;;1.9;;
27907;SDS011;15249;48.092;11.484;2024-02-14T04:25:23;2.05;;;1.9;;
27907;SDS011;15249;48.092;11.484;2024-02-14T04:26:24;2.05;;;1.9;;
27907;SDS011;15249;48.092;11.484;2024-02-14T04:27:24;2.05;;;1.9;;
27907;SDS011;15249;48.092;11.484;2024-02-14T04:28:25;2.05;;;1.9;;
27907;SDS011;15249;48.092;11.484;2024-02-14T04:29:26;2.05;;;1.9;;
27907;SDS011;15249;48.092;11.484;2024-02-14T04:30:27;2.05;;;1.9;;
27907;SDS011;15249;48.092;11.484;2024-02-14T04:31:29;2.05;;;1.9;;
27907;SDS011;15249;48.092;11.484;2024-02-14T04:32:30;2.05;;;1.9;;
27907;SDS011;15249;48.092;11.484;2024-02-14T04:33:30;2.05;;;1.9;;
27907;SDS011;15249;48.092;11.484;2024-02-14T04:34:31;2.05;;;1.9;;
27907;SDS011;15249;48.092;11.484;2024-02-14T04:35:31;2.650001;;;2.2;;
27907;SDS011;15249;48.092;11.484;2024-02-14T04:36:33;2.650001;;;2.2;;
27907;SDS011;15249;48.092;11.484;2024-02-14T04:37:33;2.650001;;;2.2;;
27907;SDS011;15249;48.092;11.484;2024-02-14T04:38:33;2.650001;;;2.2;;
27907;SDS011;15249;48.092;11.484;2024-02-14T04:39:34;2.650001;;;2.2;;
27907;SDS011;15249;48.092;11.484;2024-02-14T04:40:34;2.650001;;;2.2;;
27907;SDS011;15249;48.092;11.484;2024-02-14T04:41:37;2.650001;;;2.2;;
27907;SDS011;15249;48.092;11.484;2024-02-14T04:42:37;2.650001;;;2.2;;
27907;SDS011;15249;48.092;11.484;2024-02-14T04:43:38;2.650001;;;2.2;;
27907;SDS011;15249;48.092;11.484;2024-02-14T04:44:39;2.650001;;;2.2;;
27907;SDS011;15249;48.092;11.484;2024-02-14T04:45:39;2.650001;;;2.2;;
27907;SDS011;15249;48.092;11.484;2024-02-14T04:46:43;2.3;;;2.1;;
27907;SDS011;15249;48.092;11.484;2024-02-14T04:47:44;2.3;;;2.1;;
27907;SDS011;15249;48.092;11.484;2024-02-14T04:48:45;2.3;;;2.1;;
27907;SDS011;15249;48.092;11.484;2024-02-14T04:49:45;2.3;;;2.1;;
27907;SDS011;15249;48.092;11.484;2024-02-14T04:50:46;2.3;;;2.1;;
27907;SDS011;15249;48.092;11.484;2024-02-14T04:51:46;2.3;;;2.1;;
27907;SDS011;15249;48.092;11.484;2024-02-14T04:52:47;2.3;;;2.1;;
27907;SDS011;15249;48.092;11.484;2024-02-14T04:53:47;2.3;;;2.1;;
27907;SDS011;15249;48.092;11.484;2024-02-14T04:54:48;2.3;;;2.1;;
27907;SDS011;15249;48.092;11.484;2024-02-14T04:55:48;2.3;;;2.1;;
27907;SDS011;15249;48.092;11.484;2024-02-14T04:56:49;3.5;;;1.9;;
27907;SDS011;15249;48.092;11.484;2024-02-14T04:57:50;3.5;;;1.9;;
27907;SDS011;15249;48.092;11.484;2024-02-14T04:58:50;3.5;;;1.9;;
27907;SDS011;15249;48.092;11.484;2024-02-14T04:59:51;3.5;;;1.9;;
27907;SDS011;15249;48.092;11.484;2024-02-14T05:00:52;3.5;;;1.9;;
27907;SDS011;15249;48.092;11.484;2024-02-14T05:01:53;3.5;;;1.9;;
27907;SDS011;15249;48.092;11.484;2024-02-14T05:02:54;3.5;;;1.9;;
27907;SDS011;15249;48.092;11.484;2024-02-14T05:03:54;3.5;;;1.9;;
27907;SDS011;15249;48.092;11.484;2024-02-14T05:04:55;3.5;;;1.9;;
27907;SDS011;15249;48.092;11.484;2024-02-14T05:05:55;3.5;;;1.9;;
27907;SDS011;15249;48.092;11.484;2024-02-14T05:06:56;3.5;;;1.9;;
27907;SDS011;15249;48.092;11.484;2024-02-14T05:07:56;2.5;;;1.8;;
27907;SDS011;15249;48.092;11.484;2024-02-14T05:08:57;2.5;;;1.8;;
27907;SDS011;15249;48.092;11.484;2024-02-14T05:09:57;2.5;;;1.8;;
27907;SDS011;15249;48.092;11.484;2024-02-14T05:10:58;2.5;;;1.8;;
27907;SDS011;15249;48.092;11.484;2024-02-14T05:11:59;2.5;;;1.8;;
27907;SDS011;15249;48.092;11.484;2024-02-14T05:12:59;2.5;;;1.8;;
27907;SDS011;15249;48.092;11.484;2024-02-14T05:14:01;2.5;;;1.8;;
27907;SDS011;15249;48.092;11.484;2024-02-14T05:15:03;2.5;;;1.8;;
27907;SDS011;15249;48.092;11.484;2024-02-14T05:16:04;2.5;;;1.8;;
27907;SDS011;15249;48.092;11.484;2024-02-14T05:17:06;2.5;;;1.8;;
27907;SDS011;15249;48.092;11.484;2024-02-14T05:18:07;2.5;;;1.8;;
27907;SDS011;15249;48.092;11.484;2024-02-14T05:19:07;2.5;;;1.8;;
27907;SDS011;15249;48.092;11.484;2024-02-14T05:20:09;2.5;;;1.8;;
27907;SDS011;15249;48.092;11.484;2024-02-14T05:21:10;2.5;;;1.8;;
27907;SDS011;15249;48.092;11.484;2024-02-14T05:22:10;2.5;;;1.8;;
27907;SDS011;15249;48.092;11.484;2024-02-14T05:23:11;2.5;;;1.8;;
27907;SDS011;15249;48.092;11.484;2024-02-14T05:24:11;2.5;;;1.8;;
27907;SDS011;15249;48.092;11.484;2024-02-14T05:25:12;2.5;;;1.8;;
27907;SDS011;15249;48.092;11.484;2024-02-14T05:26:12;2.5;;;1.8;;
27907;SDS011;15249;48.092;11.484;2024-02-14T05:27:12;2.5;;;1.8;;
27907;SDS011;15249;48.092;11.484;2024-02-14T05:28:14;2.5;;;1.8;;
27907;SDS011;15249;48.092;11.484;2024-02-14T05:29:15;2.5;;;1.8;;
27907;SDS011;15249;48.092;11.484;2024-02-14T05:30:15;2.5;;;1.8;;
27907;SDS011;15249;48.092;11.484;2024-02-14T05:31:16;2.5;;;1.8;;
27907;SDS011;15249;48.092;11.484;2024-02-14T05:32:17;2.5;;;1.8;;
27907;SDS011;15249;48.092;11.484;2024-02-14T05:33:22;2.5;;;1.8;;
27907;SDS011;15249;48.092;11.484;2024-02-14T05:34:22;2.5;;;1.8;;
27907;SDS011;15249;48.092;11.484;2024-02-14T05:35:23;2.5;;;1.8;;
27907;SDS011;15249;48.092;11.484;2024-02-14T05:36:25;2.5;;;1.8;;
27907;SDS011;15249;48.092;11.484;2024-02-14T05:37:28;2.5;;;1.8;;
27907;SDS011;15249;48.092;11.484;2024-02-14T05:38:29;2.5;;;1.8;;
27907;SDS011;15249;48.092;11.484;2024-02-14T05:39:30;2.4;;;1.7;;
27907;SDS011;15249;48.092;11.484;2024-02-14T05:40:31;2.4;;;1.7;;
27907;SDS011;15249;48.092;11.484;2024-02-14T05:41:32;2.4;;;1.7;;
27907;SDS011;15249;48.092;11.484;2024-02-14T05:42:34;2.4;;;1.7;;
27907;SDS011;15249;48.092;11.484;2024-02-14T05:43:34;2.4;;;1.7;;
27907;SDS011;15249;48.092;11.484;2024-02-14T05:44:35;2.4;;;1.7;;
27907;SDS011;15249;48.092;11.484;2024-02-14T05:45:36;2.4;;;1.7;;
27907;SDS011;15249;48.092;11.484;2024-02-14T05:46:36;2.4;;;1.7;;
27907;SDS011;15249;48.092;11.484;2024-02-14T05:47:36;2.4;;;1.7;;
27907;SDS011;15249;48.092;11.484;2024-02-14T05:48:38;2.4;;;1.7;;
27907;SDS011;15249;48.092;11.484;2024-02-14T05:49:39;2.4;;;1.7;;
27907;SDS011;15249;48.092;11.484;2024-02-14T05:50:40;2.4;;;1.7;;
27907;SDS011;15249;48.092;11.484;2024-02-14T05:51:41;2.4;;;1.7;;
27907;SDS011;15249;48.092;11.484;2024-02-14T05:52:41;2.4;;;1.7;;
27907;SDS011;15249;48.092;11.484;2024-02-14T05:53:42;2.4;;;1.7;;
27907;SDS011;15249;48.092;11.484;2024-02-14T05:54:42;2.4;;;1.7;;
27907;SDS011;15249;48.092;11.484;2024-02-14T05:55:43;2.4;;;1.7;;
27907;SDS011;15249;48.092;11.484;2024-02-14T05:56:43;2.4;;;1.7;;
27907;SDS011;15249;48.092;11.484;2024-02-14T05:57:44;2.4;;;1.7;;
27907;SDS011;15249;48.092;11.484;2024-02-14T05:58:45;2.4;;;1.7;;
27907;SDS011;15249;48.092;11.484;2024-02-14T05:59:45;2.4;;;1.7;;
27907;SDS011;15249;48.092;11.484;2024-02-14T06:00:45;2.4;;;1.8;;
27907;SDS011;15249;48.092;11.484;2024-02-14T06:01:46;2.4;;;1.8;;
27907;SDS011;15249;48.092;11.484;2024-02-14T06:02:47;2.4;;;1.8;;
27907;SDS011;15249;48.092;11.484;2024-02-14T06:03:47;2.4;;;1.8;;
27907;SDS011;15249;48.092;11.484;2024-02-14T06:04:48;2.4;;;1.8;;
27907;SDS011;15249;48.092;11.484;2024-02-14T06:05:48;2.4;;;1.8;;
27907;SDS011;15249;48.092;11.484;2024-02-14T06:06:49;2.4;;;1.8;;
27907;SDS011;15249;48.092;11.484;2024-02-14T06:07:50;2.4;;;1.8;;
27907;SDS011;15249;48.092;11.484;2024-02-14T06:08:50;2.4;;;1.8;;
27907;SDS011;15249;48.092;11.484;2024-02-14T06:09:51;2.4;;;1.8;;
27907;SDS011;15249;48.092;11.484;2024-02-14T06:10:51;2.4;;;1.8;;